sensor_id;sensor_type;location;lat;lon;timestamp;P1;durP1;ratioP1;P2;durP2;ratioP2
33802;SDS011;20110;53.120;5.786;2023-04-21T00:01:31;55.05;;;30.30;;
33802;SDS011;20110;53.120;5.786;2023-04-21T00:03:58;51.10;;;28.98;;
33802;SDS011;20110;53.120;5.786;2023-04-21T00:06:24;48.40;;;27.70;;
33802;SDS011;20110;53.120;5.786;2023-04-21T00:08:50;61.78;;;31.17;;
33802;SDS011;20110;53.120;5.786;2023-04-21T00:11:17;64.53;;;30.35;;
33802;SDS011;20110;53.120;5.786;2023-04-21T00:13:43;66.32;;;30.00;;
33802;SDS011;20110;53.120;5.786;2023-04-21T00:16:09;52.78;;;29.45;;
33802;SDS011;20110;53.120;5.786;2023-04-21T00:18:35;64.68;;;29.08;;
33802;SDS011;20110;53.120;5.786;2023-04-21T00:21:01;59.80;;;30.48;;
33802;SDS011;20110;53.120;5.786;2023-04-21T00:23:27;57.90;;;29.98;;
33802;SDS011;20110;53.120;5.786;2023-04-21T00:25:52;56.78;;;31.30;;
33802;SDS011;20110;53.120;5.786;2023-04-21T00:28:18;58.53;;;30.08;;
33802;SDS011;20110;53.120;5.786;2023-04-21T00:30:44;60.70;;;26.88;;
33802;SDS011;20110;53.120;5.786;2023-04-21T00:33:10;70.57;;;30.65;;
33802;SDS011;20110;53.120;5.786;2023-04-21T00:35:36;55.97;;;27.48;;
33802;SDS011;20110;53.120;5.786;2023-04-21T00:38:01;54.70;;;28.48;;
33802;SDS011;20110;53.120;5.786;2023-04-21T00:40:27;53.05;;;29.13;;
33802;SDS011;20110;53.120;5.786;2023-04-21T00:42:53;50.80;;;26.52;;
33802;SDS011;20110;53.120;5.786;2023-04-21T00:45:19;54.63;;;26.60;;
33802;SDS011;20110;53.120;5.786;2023-04-21T00:47:44;55.58;;;27.02;;
33802;SDS011;20110;53.120;5.786;2023-04-21T00:50:10;47.25;;;24.67;;
33802;SDS011;20110;53.120;5.786;2023-04-21T00:52:39;49.50;;;24.67;;
33802;SDS011;20110;53.120;5.786;2023-04-21T00:55:08;40.92;;;21.92;;
33802;SDS011;20110;53.120;5.786;2023-04-21T00:57:34;51.28;;;23.75;;
33802;SDS011;20110;53.120;5.786;2023-04-21T01:00:04;41.33;;;22.67;;
33802;SDS011;20110;53.120;5.786;2023-04-21T01:02:33;47.25;;;23.15;;
33802;SDS011;20110;53.120;5.786;2023-04-21T01:05:02;42.47;;;22.30;;
33802;SDS011;20110;53.120;5.786;2023-04-21T01:07:33;46.38;;;22.25;;
33802;SDS011;20110;53.120;5.786;2023-04-21T01:10:00;41.83;;;22.75;;
33802;SDS011;20110;53.120;5.786;2023-04-21T01:12:27;39.55;;;20.23;;
33802;SDS011;20110;53.120;5.786;2023-04-21T01:14:53;44.47;;;20.48;;
33802;SDS011;20110;53.120;5.786;2023-04-21T01:17:19;41.38;;;21.70;;
33802;SDS011;20110;53.120;5.786;2023-04-21T01:19:45;49.50;;;21.77;;
33802;SDS011;20110;53.120;5.786;2023-04-21T01:22:11;38.55;;;20.05;;
33802;SDS011;20110;53.120;5.786;2023-04-21T01:24:43;37.85;;;20.80;;
33802;SDS011;20110;53.120;5.786;2023-04-21T01:27:13;50.42;;;22.95;;
33802;SDS011;20110;53.120;5.786;2023-04-21T01:29:42;45.92;;;20.85;;
33802;SDS011;20110;53.120;5.786;2023-04-21T01:32:14;43.28;;;21.42;;
33802;SDS011;20110;53.120;5.786;2023-04-21T01:34:43;40.13;;;21.42;;
33802;SDS011;20110;53.120;5.786;2023-04-21T01:37:10;47.15;;;21.25;;
33802;SDS011;20110;53.120;5.786;2023-04-21T01:39:41;46.05;;;22.70;;
33802;SDS011;20110;53.120;5.786;2023-04-21T01:42:09;37.83;;;21.27;;
33802;SDS011;20110;53.120;5.786;2023-04-21T01:44:36;48.30;;;22.52;;
33802;SDS011;20110;53.120;5.786;2023-04-21T01:47:03;41.05;;;21.75;;
33802;SDS011;20110;53.120;5.786;2023-04-21T01:49:30;50.60;;;22.60;;
33802;SDS011;20110;53.120;5.786;2023-04-21T01:51:56;45.63;;;21.67;;
33802;SDS011;20110;53.120;5.786;2023-04-21T01:54:22;46.75;;;22.35;;
33802;SDS011;20110;53.120;5.786;2023-04-21T01:56:48;36.47;;;21.25;;
33802;SDS011;20110;53.120;5.786;2023-04-21T01:59:13;42.95;;;22.75;;
33802;SDS011;20110;53.120;5.786;2023-04-21T02:01:39;53.17;;;23.45;;
33802;SDS011;20110;53.120;5.786;2023-04-21T02:04:05;42.13;;;21.75;;
33802;SDS011;20110;53.120;5.786;2023-04-21T02:06:31;40.05;;;22.75;;
33802;SDS011;20110;53.120;5.786;2023-04-21T02:08:57;45.72;;;23.45;;
33802;SDS011;20110;53.120;5.786;2023-04-21T02:11:23;45.35;;;23.35;;
33802;SDS011;20110;53.120;5.786;2023-04-21T02:13:53;55.30;;;24.35;;
33802;SDS011;20110;53.120;5.786;2023-04-21T02:16:20;50.80;;;23.00;;
33802;SDS011;20110;53.120;5.786;2023-04-21T02:18:50;47.15;;;23.60;;
33802;SDS011;20110;53.120;5.786;2023-04-21T02:21:18;50.65;;;24.30;;
33802;SDS011;20110;53.120;5.786;2023-04-21T02:23:48;41.67;;;23.13;;
33802;SDS011;20110;53.120;5.786;2023-04-21T02:26:15;43.53;;;23.20;;
33802;SDS011;20110;53.120;5.786;2023-04-21T02:28:41;43.25;;;23.55;;
33802;SDS011;20110;53.120;5.786;2023-04-21T02:31:07;41.60;;;22.73;;
33802;SDS011;20110;53.120;5.786;2023-04-21T02:33:33;49.20;;;24.45;;
33802;SDS011;20110;53.120;5.786;2023-04-21T02:35:59;46.13;;;24.33;;
33802;SDS011;20110;53.120;5.786;2023-04-21T02:38:25;45.17;;;22.92;;
33802;SDS011;20110;53.120;5.786;2023-04-21T02:40:50;41.05;;;21.90;;
33802;SDS011;20110;53.120;5.786;2023-04-21T02:43:16;47.85;;;22.75;;
33802;SDS011;20110;53.120;5.786;2023-04-21T02:45:42;46.05;;;22.30;;
33802;SDS011;20110;53.120;5.786;2023-04-21T02:48:10;51.30;;;23.20;;
33802;SDS011;20110;53.120;5.786;2023-04-21T02:50:36;45.22;;;23.60;;
33802;SDS011;20110;53.120;5.786;2023-04-21T02:53:02;44.33;;;21.90;;
33802;SDS011;20110;53.120;5.786;2023-04-21T02:55:28;41.72;;;21.40;;
33802;SDS011;20110;53.120;5.786;2023-04-21T02:57:53;46.50;;;23.33;;
33802;SDS011;20110;53.120;5.786;2023-04-21T03:00:21;41.25;;;22.92;;
33802;SDS011;20110;53.120;5.786;2023-04-21T03:02:47;43.03;;;23.35;;
33802;SDS011;20110;53.120;5.786;2023-04-21T03:05:12;39.67;;;22.40;;
33802;SDS011;20110;53.120;5.786;2023-04-21T03:07:38;41.17;;;22.40;;
33802;SDS011;20110;53.120;5.786;2023-04-21T03:10:05;39.03;;;22.17;;
33802;SDS011;20110;53.120;5.786;2023-04-21T03:12:31;46.05;;;23.70;;
33802;SDS011;20110;53.120;5.786;2023-04-21T03:14:57;47.08;;;24.27;;
33802;SDS011;20110;53.120;5.786;2023-04-21T03:17:23;48.00;;;23.20;;
33802;SDS011;20110;53.120;5.786;2023-04-21T03:19:49;47.92;;;22.35;;
33802;SDS011;20110;53.120;5.786;2023-04-21T03:22:15;41.58;;;21.50;;
33802;SDS011;20110;53.120;5.786;2023-04-21T03:24:41;48.20;;;23.77;;
33802;SDS011;20110;53.120;5.786;2023-04-21T03:27:06;47.38;;;22.48;;
33802;SDS011;20110;53.120;5.786;2023-04-21T03:29:32;53.05;;;22.13;;
33802;SDS011;20110;53.120;5.786;2023-04-21T03:32:00;44.17;;;22.90;;
33802;SDS011;20110;53.120;5.786;2023-04-21T03:34:25;44.65;;;22.98;;
33802;SDS011;20110;53.120;5.786;2023-04-21T03:36:51;42.75;;;21.83;;
33802;SDS011;20110;53.120;5.786;2023-04-21T03:39:17;48.50;;;24.42;;
33802;SDS011;20110;53.120;5.786;2023-04-21T03:41:43;47.40;;;22.67;;
33802;SDS011;20110;53.120;5.786;2023-04-21T03:44:09;46.88;;;24.67;;
33802;SDS011;20110;53.120;5.786;2023-04-21T03:46:34;47.97;;;22.90;;
33802;SDS011;20110;53.120;5.786;2023-04-21T03:49:00;46.28;;;22.38;;
33802;SDS011;20110;53.120;5.786;2023-04-21T03:51:26;35.15;;;20.77;;
33802;SDS011;20110;53.120;5.786;2023-04-21T03:53:52;44.38;;;23.33;;
33802;SDS011;20110;53.120;5.786;2023-04-21T03:56:18;51.72;;;25.58;;
33802;SDS011;20110;53.120;5.786;2023-04-21T03:58:43;39.50;;;22.17;;
33802;SDS011;20110;53.120;5.786;2023-04-21T04:01:10;57.63;;;24.13;;
33802;SDS011;20110;53.120;5.786;2023-04-21T04:03:36;53.90;;;24.23;;
33802;SDS011;20110;53.120;5.786;2023-04-21T04:06:02;45.20;;;23.73;;
33802;SDS011;20110;53.120;5.786;2023-04-21T04:08:29;45.30;;;22.40;;
33802;SDS011;20110;53.120;5.786;2023-04-21T04:10:55;43.30;;;22.30;;
33802;SDS011;20110;53.120;5.786;2023-04-21T04:13:21;42.13;;;22.63;;
33802;SDS011;20110;53.120;5.786;2023-04-21T04:15:48;36.05;;;21.67;;
33802;SDS011;20110;53.120;5.786;2023-04-21T04:18:14;47.35;;;22.50;;
33802;SDS011;20110;53.120;5.786;2023-04-21T04:20:40;39.45;;;22.60;;
33802;SDS011;20110;53.120;5.786;2023-04-21T04:23:06;40.42;;;21.58;;
33802;SDS011;20110;53.120;5.786;2023-04-21T04:25:32;39.38;;;19.95;;
33802;SDS011;20110;53.120;5.786;2023-04-21T04:27:58;41.35;;;19.95;;
33802;SDS011;20110;53.120;5.786;2023-04-21T04:30:24;41.67;;;20.13;;
33802;SDS011;20110;53.120;5.786;2023-04-21T04:32:53;44.50;;;19.55;;
33802;SDS011;20110;53.120;5.786;2023-04-21T04:35:21;41.72;;;19.58;;
33802;SDS011;20110;53.120;5.786;2023-04-21T04:37:48;34.53;;;19.70;;
33802;SDS011;20110;53.120;5.786;2023-04-21T04:40:14;37.60;;;20.05;;
33802;SDS011;20110;53.120;5.786;2023-04-21T04:42:41;41.33;;;19.42;;
33802;SDS011;20110;53.120;5.786;2023-04-21T04:45:09;36.78;;;18.45;;
33802;SDS011;20110;53.120;5.786;2023-04-21T04:47:35;30.00;;;19.20;;
33802;SDS011;20110;53.120;5.786;2023-04-21T04:50:05;46.95;;;19.52;;
33802;SDS011;20110;53.120;5.786;2023-04-21T04:52:31;30.65;;;18.48;;
33802;SDS011;20110;53.120;5.786;2023-04-21T04:54:57;36.45;;;18.13;;
33802;SDS011;20110;53.120;5.786;2023-04-21T04:57:23;33.33;;;18.58;;
33802;SDS011;20110;53.120;5.786;2023-04-21T04:59:53;30.75;;;17.17;;
33802;SDS011;20110;53.120;5.786;2023-04-21T05:02:20;32.45;;;16.88;;
33802;SDS011;20110;53.120;5.786;2023-04-21T05:04:48;33.75;;;16.48;;
33802;SDS011;20110;53.120;5.786;2023-04-21T05:07:15;36.17;;;17.33;;
33802;SDS011;20110;53.120;5.786;2023-04-21T05:09:40;33.05;;;17.02;;
33802;SDS011;20110;53.120;5.786;2023-04-21T05:12:06;29.13;;;17.10;;
33802;SDS011;20110;53.120;5.786;2023-04-21T05:14:32;42.65;;;18.10;;
33802;SDS011;20110;53.120;5.786;2023-04-21T05:16:58;27.20;;;15.65;;
33802;SDS011;20110;53.120;5.786;2023-04-21T05:19:24;27.35;;;16.00;;
33802;SDS011;20110;53.120;5.786;2023-04-21T05:21:50;29.75;;;16.00;;
33802;SDS011;20110;53.120;5.786;2023-04-21T05:24:17;34.47;;;16.48;;
33802;SDS011;20110;53.120;5.786;2023-04-21T05:26:47;28.52;;;15.55;;
33802;SDS011;20110;53.120;5.786;2023-04-21T05:29:13;31.25;;;15.75;;
33802;SDS011;20110;53.120;5.786;2023-04-21T05:31:39;30.25;;;15.77;;
33802;SDS011;20110;53.120;5.786;2023-04-21T05:34:05;24.27;;;15.10;;
33802;SDS011;20110;53.120;5.786;2023-04-21T05:36:31;25.48;;;14.55;;
33802;SDS011;20110;53.120;5.786;2023-04-21T05:38:57;30.75;;;16.13;;
33802;SDS011;20110;53.120;5.786;2023-04-21T05:41:23;26.35;;;15.35;;
33802;SDS011;20110;53.120;5.786;2023-04-21T05:43:50;32.95;;;14.90;;
33802;SDS011;20110;53.120;5.786;2023-04-21T05:46:15;31.05;;;15.52;;
33802;SDS011;20110;53.120;5.786;2023-04-21T05:48:41;34.25;;;15.15;;
33802;SDS011;20110;53.120;5.786;2023-04-21T05:51:11;26.80;;;13.35;;
33802;SDS011;20110;53.120;5.786;2023-04-21T05:53:39;27.45;;;13.57;;
33802;SDS011;20110;53.120;5.786;2023-04-21T05:56:07;29.95;;;15.10;;
33802;SDS011;20110;53.120;5.786;2023-04-21T05:58:34;32.08;;;15.00;;
33802;SDS011;20110;53.120;5.786;2023-04-21T06:01:01;33.47;;;15.52;;
33802;SDS011;20110;53.120;5.786;2023-04-21T06:03:31;26.73;;;14.27;;
33802;SDS011;20110;53.120;5.786;2023-04-21T06:06:02;21.42;;;14.40;;
33802;SDS011;20110;53.120;5.786;2023-04-21T06:08:30;30.00;;;15.02;;
33802;SDS011;20110;53.120;5.786;2023-04-21T06:10:56;29.05;;;14.50;;
33802;SDS011;20110;53.120;5.786;2023-04-21T06:13:22;29.83;;;13.95;;
33802;SDS011;20110;53.120;5.786;2023-04-21T06:15:48;27.58;;;14.23;;
33802;SDS011;20110;53.120;5.786;2023-04-21T06:18:13;24.33;;;14.43;;
33802;SDS011;20110;53.120;5.786;2023-04-21T06:20:40;35.22;;;14.07;;
33802;SDS011;20110;53.120;5.786;2023-04-21T06:23:06;21.13;;;12.93;;
33802;SDS011;20110;53.120;5.786;2023-04-21T06:25:33;20.33;;;13.23;;
33802;SDS011;20110;53.120;5.786;2023-04-21T06:28:00;24.33;;;12.63;;
33802;SDS011;20110;53.120;5.786;2023-04-21T06:30:26;20.67;;;13.27;;
33802;SDS011;20110;53.120;5.786;2023-04-21T06:32:52;32.70;;;14.02;;
33802;SDS011;20110;53.120;5.786;2023-04-21T06:35:18;22.88;;;12.88;;
33802;SDS011;20110;53.120;5.786;2023-04-21T06:37:44;27.80;;;13.00;;
33802;SDS011;20110;53.120;5.786;2023-04-21T06:40:10;25.75;;;12.63;;
33802;SDS011;20110;53.120;5.786;2023-04-21T06:42:40;28.13;;;13.05;;
33802;SDS011;20110;53.120;5.786;2023-04-21T06:45:06;30.92;;;12.50;;
33802;SDS011;20110;53.120;5.786;2023-04-21T06:47:33;26.15;;;13.52;;
33802;SDS011;20110;53.120;5.786;2023-04-21T06:49:59;23.92;;;12.88;;
33802;SDS011;20110;53.120;5.786;2023-04-21T06:52:24;26.60;;;12.93;;
33802;SDS011;20110;53.120;5.786;2023-04-21T06:54:50;32.35;;;12.27;;
33802;SDS011;20110;53.120;5.786;2023-04-21T06:57:16;26.95;;;13.23;;
33802;SDS011;20110;53.120;5.786;2023-04-21T06:59:42;27.48;;;13.57;;
33802;SDS011;20110;53.120;5.786;2023-04-21T07:02:08;22.40;;;11.95;;
33802;SDS011;20110;53.120;5.786;2023-04-21T07:04:34;24.58;;;12.48;;
33802;SDS011;20110;53.120;5.786;2023-04-21T07:07:00;18.48;;;12.23;;
33802;SDS011;20110;53.120;5.786;2023-04-21T07:09:25;23.42;;;12.23;;
33802;SDS011;20110;53.120;5.786;2023-04-21T07:11:54;22.52;;;12.30;;
33802;SDS011;20110;53.120;5.786;2023-04-21T07:14:20;27.25;;;13.02;;
33802;SDS011;20110;53.120;5.786;2023-04-21T07:16:47;22.15;;;12.00;;
33802;SDS011;20110;53.120;5.786;2023-04-21T07:19:13;29.63;;;12.32;;
33802;SDS011;20110;53.120;5.786;2023-04-21T07:21:39;21.10;;;11.18;;
33802;SDS011;20110;53.120;5.786;2023-04-21T07:24:04;21.52;;;12.30;;
33802;SDS011;20110;53.120;5.786;2023-04-21T07:26:31;21.08;;;12.50;;
33802;SDS011;20110;53.120;5.786;2023-04-21T07:28:58;21.93;;;12.40;;
33802;SDS011;20110;53.120;5.786;2023-04-21T07:31:24;27.50;;;13.63;;
33802;SDS011;20110;53.120;5.786;2023-04-21T07:33:50;21.00;;;11.65;;
33802;SDS011;20110;53.120;5.786;2023-04-21T07:36:16;22.38;;;12.73;;
33802;SDS011;20110;53.120;5.786;2023-04-21T07:38:43;26.25;;;11.85;;
33802;SDS011;20110;53.120;5.786;2023-04-21T07:41:10;24.75;;;13.32;;
33802;SDS011;20110;53.120;5.786;2023-04-21T07:43:37;26.42;;;13.23;;
33802;SDS011;20110;53.120;5.786;2023-04-21T07:46:04;29.38;;;12.73;;
33802;SDS011;20110;53.120;5.786;2023-04-21T07:48:30;28.60;;;12.20;;
33802;SDS011;20110;53.120;5.786;2023-04-21T07:50:57;28.27;;;12.80;;
33802;SDS011;20110;53.120;5.786;2023-04-21T07:53:24;25.73;;;12.32;;
33802;SDS011;20110;53.120;5.786;2023-04-21T07:55:51;25.10;;;11.90;;
33802;SDS011;20110;53.120;5.786;2023-04-21T07:58:18;25.13;;;11.40;;
33802;SDS011;20110;53.120;5.786;2023-04-21T08:00:45;21.88;;;12.50;;
33802;SDS011;20110;53.120;5.786;2023-04-21T08:03:10;28.15;;;11.25;;
33802;SDS011;20110;53.120;5.786;2023-04-21T08:05:36;19.05;;;11.32;;
33802;SDS011;20110;53.120;5.786;2023-04-21T08:08:02;19.42;;;11.57;;
33802;SDS011;20110;53.120;5.786;2023-04-21T08:10:29;27.45;;;12.30;;
33802;SDS011;20110;53.120;5.786;2023-04-21T08:12:55;19.58;;;11.27;;
33802;SDS011;20110;53.120;5.786;2023-04-21T08:15:20;20.50;;;11.90;;
33802;SDS011;20110;53.120;5.786;2023-04-21T08:17:46;19.58;;;11.27;;
33802;SDS011;20110;53.120;5.786;2023-04-21T08:20:12;18.27;;;10.68;;
33802;SDS011;20110;53.120;5.786;2023-04-21T08:22:40;20.17;;;11.00;;
33802;SDS011;20110;53.120;5.786;2023-04-21T08:25:06;22.23;;;11.65;;
33802;SDS011;20110;53.120;5.786;2023-04-21T08:27:32;27.45;;;11.95;;
33802;SDS011;20110;53.120;5.786;2023-04-21T08:30:01;20.45;;;11.93;;
33802;SDS011;20110;53.120;5.786;2023-04-21T08:32:28;16.65;;;10.93;;
33802;SDS011;20110;53.120;5.786;2023-04-21T08:34:54;23.55;;;11.35;;
33802;SDS011;20110;53.120;5.786;2023-04-21T08:37:20;22.05;;;10.98;;
33802;SDS011;20110;53.120;5.786;2023-04-21T08:39:48;21.88;;;11.45;;
33802;SDS011;20110;53.120;5.786;2023-04-21T08:42:17;18.35;;;11.07;;
33802;SDS011;20110;53.120;5.786;2023-04-21T08:44:44;20.42;;;11.30;;
33802;SDS011;20110;53.120;5.786;2023-04-21T08:47:11;20.75;;;11.80;;
33802;SDS011;20110;53.120;5.786;2023-04-21T08:49:39;19.00;;;11.52;;
33802;SDS011;20110;53.120;5.786;2023-04-21T08:52:10;20.13;;;12.18;;
33802;SDS011;20110;53.120;5.786;2023-04-21T08:54:38;19.75;;;11.25;;
33802;SDS011;20110;53.120;5.786;2023-04-21T08:57:05;18.88;;;11.23;;
33802;SDS011;20110;53.120;5.786;2023-04-21T08:59:31;16.92;;;10.85;;
33802;SDS011;20110;53.120;5.786;2023-04-21T09:02:07;26.92;;;12.52;;
33802;SDS011;20110;53.120;5.786;2023-04-21T09:04:36;23.40;;;10.68;;
33802;SDS011;20110;53.120;5.786;2023-04-21T09:07:04;18.27;;;12.32;;
33802;SDS011;20110;53.120;5.786;2023-04-21T09:09:32;22.23;;;11.88;;
33802;SDS011;20110;53.120;5.786;2023-04-21T09:12:21;24.30;;;11.90;;
33802;SDS011;20110;53.120;5.786;2023-04-21T09:14:48;26.42;;;12.85;;
33802;SDS011;20110;53.120;5.786;2023-04-21T09:17:15;23.55;;;11.70;;
33802;SDS011;20110;53.120;5.786;2023-04-21T09:19:43;18.67;;;11.30;;
33802;SDS011;20110;53.120;5.786;2023-04-21T09:22:13;19.45;;;10.73;;
33802;SDS011;20110;53.120;5.786;2023-04-21T09:24:45;25.80;;;11.65;;
33802;SDS011;20110;53.120;5.786;2023-04-21T09:27:13;23.25;;;11.98;;
33802;SDS011;20110;53.120;5.786;2023-04-21T09:29:46;20.00;;;11.18;;
33802;SDS011;20110;53.120;5.786;2023-04-21T09:32:19;18.55;;;11.10;;
33802;SDS011;20110;53.120;5.786;2023-04-21T09:34:45;18.08;;;10.70;;
33802;SDS011;20110;53.120;5.786;2023-04-21T09:37:12;18.52;;;10.98;;
33802;SDS011;20110;53.120;5.786;2023-04-21T09:39:38;14.57;;;10.10;;
33802;SDS011;20110;53.120;5.786;2023-04-21T09:42:10;15.35;;;11.32;;
33802;SDS011;20110;53.120;5.786;2023-04-21T09:44:36;20.15;;;10.85;;
33802;SDS011;20110;53.120;5.786;2023-04-21T09:47:03;19.35;;;10.82;;
33802;SDS011;20110;53.120;5.786;2023-04-21T09:49:30;28.27;;;10.88;;
33802;SDS011;20110;53.120;5.786;2023-04-21T09:52:01;16.85;;;10.75;;
33802;SDS011;20110;53.120;5.786;2023-04-21T09:54:28;21.38;;;10.45;;
33802;SDS011;20110;53.120;5.786;2023-04-21T09:57:00;18.55;;;10.20;;
33802;SDS011;20110;53.120;5.786;2023-04-21T09:59:29;22.65;;;10.02;;
33802;SDS011;20110;53.120;5.786;2023-04-21T10:02:04;17.23;;;10.23;;
33802;SDS011;20110;53.120;5.786;2023-04-21T10:04:32;22.98;;;11.05;;
33802;SDS011;20110;53.120;5.786;2023-04-21T10:07:00;18.05;;;11.32;;
33802;SDS011;20110;53.120;5.786;2023-04-21T10:09:32;15.27;;;10.18;;
33802;SDS011;20110;53.120;5.786;2023-04-21T10:12:06;16.75;;;10.35;;
33802;SDS011;20110;53.120;5.786;2023-04-21T10:14:34;18.63;;;10.32;;
33802;SDS011;20110;53.120;5.786;2023-04-21T10:17:04;20.65;;;11.20;;
33802;SDS011;20110;53.120;5.786;2023-04-21T10:19:33;18.67;;;10.02;;
33802;SDS011;20110;53.120;5.786;2023-04-21T10:22:07;20.05;;;10.93;;
33802;SDS011;20110;53.120;5.786;2023-04-21T10:24:40;22.55;;;9.65;;
33802;SDS011;20110;53.120;5.786;2023-04-21T10:27:10;17.30;;;10.23;;
33802;SDS011;20110;53.120;5.786;2023-04-21T10:29:57;18.13;;;9.73;;
33802;SDS011;20110;53.120;5.786;2023-04-21T10:32:41;19.60;;;9.88;;
33802;SDS011;20110;53.120;5.786;2023-04-21T10:35:10;18.83;;;9.90;;
33802;SDS011;20110;53.120;5.786;2023-04-21T10:37:39;17.23;;;10.57;;
33802;SDS011;20110;53.120;5.786;2023-04-21T10:42:55;16.95;;;10.13;;
33802;SDS011;20110;53.120;5.786;2023-04-21T10:45:23;20.55;;;10.25;;
33802;SDS011;20110;53.120;5.786;2023-04-21T10:47:51;12.07;;;9.95;;
33802;SDS011;20110;53.120;5.786;2023-04-21T10:50:19;14.57;;;9.70;;
33802;SDS011;20110;53.120;5.786;2023-04-21T10:52:57;17.85;;;10.00;;
33802;SDS011;20110;53.120;5.786;2023-04-21T10:55:33;12.07;;;9.85;;
33802;SDS011;20110;53.120;5.786;2023-04-21T10:58:03;16.05;;;9.77;;
33802;SDS011;20110;53.120;5.786;2023-04-21T11:00:33;13.45;;;9.57;;
33802;SDS011;20110;53.120;5.786;2023-04-21T11:03:04;20.88;;;9.95;;
33802;SDS011;20110;53.120;5.786;2023-04-21T11:05:35;14.52;;;10.43;;
33802;SDS011;20110;53.120;5.786;2023-04-21T11:08:12;15.45;;;10.20;;
33802;SDS011;20110;53.120;5.786;2023-04-21T11:10:48;16.33;;;9.80;;
33802;SDS011;20110;53.120;5.786;2023-04-21T11:13:21;16.58;;;9.80;;
33802;SDS011;20110;53.120;5.786;2023-04-21T11:15:57;14.55;;;10.35;;
33802;SDS011;20110;53.120;5.786;2023-04-21T11:18:42;20.45;;;10.10;;
33802;SDS011;20110;53.120;5.786;2023-04-21T11:21:16;17.05;;;10.82;;
33802;SDS011;20110;53.120;5.786;2023-04-21T11:23:49;18.65;;;10.50;;
33802;SDS011;20110;53.120;5.786;2023-04-21T11:26:16;23.63;;;11.43;;
33802;SDS011;20110;53.120;5.786;2023-04-21T11:28:46;20.42;;;10.65;;
33802;SDS011;20110;53.120;5.786;2023-04-21T11:31:13;20.05;;;10.30;;
33802;SDS011;20110;53.120;5.786;2023-04-21T11:33:41;16.73;;;10.32;;
33802;SDS011;20110;53.120;5.786;2023-04-21T11:36:07;26.38;;;11.55;;
33802;SDS011;20110;53.120;5.786;2023-04-21T11:38:37;18.45;;;10.15;;
33802;SDS011;20110;53.120;5.786;2023-04-21T11:41:04;21.02;;;11.25;;
33802;SDS011;20110;53.120;5.786;2023-04-21T11:43:34;17.80;;;10.88;;
33802;SDS011;20110;53.120;5.786;2023-04-21T11:46:11;14.70;;;10.48;;
33802;SDS011;20110;53.120;5.786;2023-04-21T11:48:56;19.25;;;10.23;;
33802;SDS011;20110;53.120;5.786;2023-04-21T11:51:40;18.92;;;9.75;;
33802;SDS011;20110;53.120;5.786;2023-04-21T11:54:08;22.30;;;9.95;;
33802;SDS011;20110;53.120;5.786;2023-04-21T11:56:37;12.85;;;9.63;;
33802;SDS011;20110;53.120;5.786;2023-04-21T11:59:07;14.48;;;10.70;;
33802;SDS011;20110;53.120;5.786;2023-04-21T12:01:33;12.35;;;9.70;;
33802;SDS011;20110;53.120;5.786;2023-04-21T12:04:01;15.73;;;9.82;;
33802;SDS011;20110;53.120;5.786;2023-04-21T12:06:27;16.67;;;10.63;;
33802;SDS011;20110;53.120;5.786;2023-04-21T12:08:54;18.75;;;10.55;;
33802;SDS011;20110;53.120;5.786;2023-04-21T12:11:25;15.48;;;9.50;;
33802;SDS011;20110;53.120;5.786;2023-04-21T12:13:58;17.17;;;9.55;;
33802;SDS011;20110;53.120;5.786;2023-04-21T12:16:26;12.90;;;8.77;;
33802;SDS011;20110;53.120;5.786;2023-04-21T12:18:53;23.60;;;10.13;;
33802;SDS011;20110;53.120;5.786;2023-04-21T12:21:20;23.67;;;11.15;;
33802;SDS011;20110;53.120;5.786;2023-04-21T12:23:51;17.20;;;8.63;;
33802;SDS011;20110;53.120;5.786;2023-04-21T12:26:17;19.83;;;9.52;;
33802;SDS011;20110;53.120;5.786;2023-04-21T12:28:43;12.57;;;8.45;;
33802;SDS011;20110;53.120;5.786;2023-04-21T12:31:09;13.98;;;8.70;;
33802;SDS011;20110;53.120;5.786;2023-04-21T12:33:35;15.88;;;8.57;;
33802;SDS011;20110;53.120;5.786;2023-04-21T12:36:01;14.75;;;8.13;;
33802;SDS011;20110;53.120;5.786;2023-04-21T12:38:27;11.45;;;8.05;;
33802;SDS011;20110;53.120;5.786;2023-04-21T12:40:52;15.55;;;8.90;;
33802;SDS011;20110;53.120;5.786;2023-04-21T12:43:18;12.88;;;8.80;;
33802;SDS011;20110;53.120;5.786;2023-04-21T12:45:44;16.30;;;8.50;;
33802;SDS011;20110;53.120;5.786;2023-04-21T12:48:10;16.90;;;8.93;;
33802;SDS011;20110;53.120;5.786;2023-04-21T12:50:36;12.57;;;8.15;;
33802;SDS011;20110;53.120;5.786;2023-04-21T12:53:02;21.35;;;8.93;;
33802;SDS011;20110;53.120;5.786;2023-04-21T12:55:28;10.93;;;8.02;;
33802;SDS011;20110;53.120;5.786;2023-04-21T12:57:54;16.63;;;7.35;;
33802;SDS011;20110;53.120;5.786;2023-04-21T13:00:20;13.00;;;7.25;;
33802;SDS011;20110;53.120;5.786;2023-04-21T13:02:46;12.18;;;7.57;;
33802;SDS011;20110;53.120;5.786;2023-04-21T13:05:13;11.52;;;7.55;;
33802;SDS011;20110;53.120;5.786;2023-04-21T13:07:39;16.88;;;7.47;;
33802;SDS011;20110;53.120;5.786;2023-04-21T13:10:05;11.75;;;6.20;;
33802;SDS011;20110;53.120;5.786;2023-04-21T13:12:32;9.55;;;6.70;;
33802;SDS011;20110;53.120;5.786;2023-04-21T13:14:58;14.27;;;6.18;;
33802;SDS011;20110;53.120;5.786;2023-04-21T13:17:24;8.32;;;6.20;;
33802;SDS011;20110;53.120;5.786;2023-04-21T13:19:49;11.02;;;6.38;;
33802;SDS011;20110;53.120;5.786;2023-04-21T13:22:16;15.02;;;6.68;;
33802;SDS011;20110;53.120;5.786;2023-04-21T13:24:42;10.60;;;6.40;;
33802;SDS011;20110;53.120;5.786;2023-04-21T13:27:08;10.02;;;6.43;;
33802;SDS011;20110;53.120;5.786;2023-04-21T13:29:34;8.70;;;5.22;;
33802;SDS011;20110;53.120;5.786;2023-04-21T13:32:04;17.23;;;6.88;;
33802;SDS011;20110;53.120;5.786;2023-04-21T13:34:32;15.55;;;7.45;;
33802;SDS011;20110;53.120;5.786;2023-04-21T13:36:59;10.82;;;7.10;;
33802;SDS011;20110;53.120;5.786;2023-04-21T13:39:25;15.63;;;7.68;;
33802;SDS011;20110;53.120;5.786;2023-04-21T13:41:51;13.18;;;7.82;;
33802;SDS011;20110;53.120;5.786;2023-04-21T13:44:18;18.27;;;12.07;;
33802;SDS011;20110;53.120;5.786;2023-04-21T13:46:47;22.63;;;11.43;;
33802;SDS011;20110;53.120;5.786;2023-04-21T13:49:15;29.42;;;13.70;;
33802;SDS011;20110;53.120;5.786;2023-04-21T13:51:41;24.25;;;13.48;;
33802;SDS011;20110;53.120;5.786;2023-04-21T13:54:07;25.48;;;14.40;;
33802;SDS011;20110;53.120;5.786;2023-04-21T13:56:33;27.40;;;14.05;;
33802;SDS011;20110;53.120;5.786;2023-04-21T13:58:58;29.98;;;15.45;;
33802;SDS011;20110;53.120;5.786;2023-04-21T14:01:24;33.53;;;13.82;;
33802;SDS011;20110;53.120;5.786;2023-04-21T14:03:50;19.30;;;13.20;;
33802;SDS011;20110;53.120;5.786;2023-04-21T14:06:16;24.85;;;14.00;;
33802;SDS011;20110;53.120;5.786;2023-04-21T14:08:42;20.85;;;13.38;;
33802;SDS011;20110;53.120;5.786;2023-04-21T14:11:08;24.42;;;15.35;;
33802;SDS011;20110;53.120;5.786;2023-04-21T14:13:34;22.75;;;14.20;;
33802;SDS011;20110;53.120;5.786;2023-04-21T14:15:59;20.45;;;15.10;;
33802;SDS011;20110;53.120;5.786;2023-04-21T14:18:25;24.63;;;15.38;;
33802;SDS011;20110;53.120;5.786;2023-04-21T14:20:51;23.95;;;14.43;;
33802;SDS011;20110;53.120;5.786;2023-04-21T14:23:17;29.45;;;14.82;;
33802;SDS011;20110;53.120;5.786;2023-04-21T14:25:43;22.05;;;16.38;;
33802;SDS011;20110;53.120;5.786;2023-04-21T14:28:08;24.33;;;15.07;;